sensor_id;sensor_type;location;lat;lon;timestamp;pressure;altitude;pressure_sealevel;temperature;humidity
75923;BME280;64602;47.542;19.090;2022-12-18T00:00:23;101742.59;;;-2.83;82.40
75923;BME280;64602;47.542;19.090;2022-12-18T00:05:25;101729.13;;;-2.91;82.40
75923;BME280;64602;47.542;19.090;2022-12-18T00:10:28;101754.59;;;-2.88;82.49
75923;BME280;64602;47.542;19.090;2022-12-18T00:15:30;101767.16;;;-2.90;82.67
75923;BME280;64602;47.542;19.090;2022-12-18T00:20:36;101777.00;;;-3.02;82.57
75923;BME280;64602;47.542;19.090;2022-12-18T00:25:38;101796.88;;;-2.96;82.68
75923;BME280;64602;47.542;19.090;2022-12-18T00:30:41;101812.81;;;-2.96;82.61
75923;BME280;64602;47.542;19.090;2022-12-18T00:35:43;101813.34;;;-3.03;82.49
75923;BME280;64602;47.542;19.090;2022-12-18T00:40:45;101825.25;;;-2.97;82.54
75923;BME280;64602;47.542;19.090;2022-12-18T00:45:47;101834.31;;;-2.99;82.36
75923;BME280;64602;47.542;19.090;2022-12-18T00:50:50;101822.97;;;-3.02;82.41
75923;BME280;64602;47.542;19.090;2022-12-18T00:55:52;101824.09;;;-3.04;82.53
75923;BME280;64602;47.542;19.090;2022-12-18T01:00:54;101821.59;;;-3.17;82.64
75923;BME280;64602;47.542;19.090;2022-12-18T01:05:56;101842.31;;;-3.11;82.83
75923;BME280;64602;47.542;19.090;2022-12-18T01:10:58;101850.19;;;-3.09;82.80
75923;BME280;64602;47.542;19.090;2022-12-18T01:16:00;101843.84;;;-3.18;82.72
75923;BME280;64602;47.542;19.090;2022-12-18T01:21:12;101855.59;;;-3.11;82.80
75923;BME280;64602;47.542;19.090;2022-12-18T01:26:15;101851.81;;;-3.18;82.71
75923;BME280;64602;47.542;19.090;2022-12-18T01:31:21;101867.94;;;-3.10;82.69
75923;BME280;64602;47.542;19.090;2022-12-18T01:36:27;101842.97;;;-3.18;82.63
75923;BME280;64602;47.542;19.090;2022-12-18T01:41:30;101858.31;;;-3.22;82.65
75923;BME280;64602;47.542;19.090;2022-12-18T01:46:53;101862.19;;;-3.26;82.85
75923;BME280;64602;47.542;19.090;2022-12-18T01:51:55;101882.56;;;-3.15;82.94
75923;BME280;64602;47.542;19.090;2022-12-18T01:56:57;101889.56;;;-3.14;82.90
75923;BME280;64602;47.542;19.090;2022-12-18T02:01:59;101879.41;;;-3.20;82.93
75923;BME280;64602;47.542;19.090;2022-12-18T02:17:22;101908.31;;;-2.95;82.60
75923;BME280;64602;47.542;19.090;2022-12-18T02:27:36;101929.00;;;-3.10;82.92
75923;BME280;64602;47.542;19.090;2022-12-18T02:32:43;101920.75;;;-3.28;83.25
75923;BME280;64602;47.542;19.090;2022-12-18T02:37:47;101919.88;;;-3.28;83.40
75923;BME280;64602;47.542;19.090;2022-12-18T02:42:49;101934.59;;;-3.24;83.39
75923;BME280;64602;47.542;19.090;2022-12-18T02:47:51;101947.03;;;-3.25;83.52
75923;BME280;64602;47.542;19.090;2022-12-18T03:08:48;101953.94;;;-3.45;83.70
75923;BME280;64602;47.542;19.090;2022-12-18T03:13:55;101966.13;;;-3.42;83.70
75923;BME280;64602;47.542;19.090;2022-12-18T03:19:01;101965.72;;;-3.37;83.73
75923;BME280;64602;47.542;19.090;2022-12-18T03:24:07;101974.56;;;-3.37;83.43
75923;BME280;64602;47.542;19.090;2022-12-18T03:29:42;101968.63;;;-3.40;83.59
75923;BME280;64602;47.542;19.090;2022-12-18T03:34:49;101995.53;;;-3.34;83.63
75923;BME280;64602;47.542;19.090;2022-12-18T03:39:52;102010.00;;;-3.38;83.68
75923;BME280;64602;47.542;19.090;2022-12-18T03:45:03;102012.56;;;-3.36;83.69
75923;BME280;64602;47.542;19.090;2022-12-18T03:50:17;102019.06;;;-3.40;83.63
75923;BME280;64602;47.542;19.090;2022-12-18T03:55:22;102027.16;;;-3.42;83.54
75923;BME280;64602;47.542;19.090;2022-12-18T04:00:28;102029.09;;;-3.44;83.90
75923;BME280;64602;47.542;19.090;2022-12-18T04:05:33;102016.78;;;-3.45;83.91
75923;BME280;64602;47.542;19.090;2022-12-18T04:10:37;102027.28;;;-3.44;83.68
75923;BME280;64602;47.542;19.090;2022-12-18T04:15:39;102021.84;;;-3.53;83.64
75923;BME280;64602;47.542;19.090;2022-12-18T04:20:42;102042.38;;;-3.44;83.49
75923;BME280;64602;47.542;19.090;2022-12-18T04:25:44;102042.56;;;-3.47;83.56
75923;BME280;64602;47.542;19.090;2022-12-18T04:30:46;102029.19;;;-3.57;83.46
75923;BME280;64602;47.542;19.090;2022-12-18T04:35:48;102040.91;;;-3.48;83.39
75923;BME280;64602;47.542;19.090;2022-12-18T04:40:50;102043.56;;;-3.48;83.32
75923;BME280;64602;47.542;19.090;2022-12-18T04:45:52;102055.16;;;-3.49;83.22
75923;BME280;64602;47.542;19.090;2022-12-18T04:50:54;102050.06;;;-3.63;83.22
75923;BME280;64602;47.542;19.090;2022-12-18T04:56:11;102065.97;;;-3.63;83.41
75923;BME280;64602;47.542;19.090;2022-12-18T05:01:15;102074.44;;;-3.58;83.37
75923;BME280;64602;47.542;19.090;2022-12-18T05:06:18;102080.09;;;-3.63;83.54
75923;BME280;64602;47.542;19.090;2022-12-18T05:11:20;102087.31;;;-3.65;83.72
75923;BME280;64602;47.542;19.090;2022-12-18T05:16:22;102093.59;;;-3.66;83.62
75923;BME280;64602;47.542;19.090;2022-12-18T05:21:24;102105.28;;;-3.69;83.68
75923;BME280;64602;47.542;19.090;2022-12-18T05:26:27;102098.41;;;-3.71;83.95
75923;BME280;64602;47.542;19.090;2022-12-18T05:31:29;102101.28;;;-3.74;84.14
75923;BME280;64602;47.542;19.090;2022-12-18T05:36:38;102109.38;;;-3.76;83.88
75923;BME280;64602;47.542;19.090;2022-12-18T05:41:40;102113.47;;;-3.72;83.74
75923;BME280;64602;47.542;19.090;2022-12-18T05:46:43;102121.41;;;-3.83;83.77
75923;BME280;64602;47.542;19.090;2022-12-18T05:51:45;102116.44;;;-3.88;84.11
75923;BME280;64602;47.542;19.090;2022-12-18T05:56:47;102141.19;;;-3.76;84.10
75923;BME280;64602;47.542;19.090;2022-12-18T06:01:49;102130.19;;;-3.82;83.73
75923;BME280;64602;47.542;19.090;2022-12-18T06:06:52;102131.37;;;-3.87;83.72
75923;BME280;64602;47.542;19.090;2022-12-18T06:11:54;102152.66;;;-3.75;83.79
75923;BME280;64602;47.542;19.090;2022-12-18T06:16:56;102157.97;;;-3.75;83.67
75923;BME280;64602;47.542;19.090;2022-12-18T06:21:58;102136.69;;;-3.87;83.74
75923;BME280;64602;47.542;19.090;2022-12-18T06:27:00;102149.00;;;-3.85;83.97
75923;BME280;64602;47.542;19.090;2022-12-18T06:32:02;102152.78;;;-4.01;84.16
75923;BME280;64602;47.542;19.090;2022-12-18T06:37:04;102169.03;;;-4.05;84.45
75923;BME280;64602;47.542;19.090;2022-12-18T06:42:06;102180.53;;;-3.94;84.89
75923;BME280;64602;47.542;19.090;2022-12-18T06:47:09;102192.84;;;-3.93;84.92
75923;BME280;64602;47.542;19.090;2022-12-18T06:52:11;102190.31;;;-3.94;84.88
75923;BME280;64602;47.542;19.090;2022-12-18T06:57:13;102185.75;;;-3.92;84.72
75923;BME280;64602;47.542;19.090;2022-12-18T07:02:15;102218.00;;;-3.74;84.62
75923;BME280;64602;47.542;19.090;2022-12-18T07:07:18;102229.34;;;-3.72;84.45
75923;BME280;64602;47.542;19.090;2022-12-18T07:12:20;102219.31;;;-3.80;84.40
75923;BME280;64602;47.542;19.090;2022-12-18T07:17:22;102238.66;;;-3.67;84.44
75923;BME280;64602;47.542;19.090;2022-12-18T07:22:25;102248.84;;;-3.60;84.56
75923;BME280;64602;47.542;19.090;2022-12-18T07:27:27;102238.56;;;-3.65;84.45
75923;BME280;64602;47.542;19.090;2022-12-18T07:32:30;102267.34;;;-3.48;84.06
75923;BME280;64602;47.542;19.090;2022-12-18T07:37:32;102262.66;;;-3.44;83.85
75923;BME280;64602;47.542;19.090;2022-12-18T07:42:34;102283.59;;;-3.28;83.37
75923;BME280;64602;47.542;19.090;2022-12-18T07:47:37;102284.25;;;-3.13;83.04
75923;BME280;64602;47.542;19.090;2022-12-18T07:52:39;102286.34;;;-3.06;82.32
75923;BME280;64602;47.542;19.090;2022-12-18T07:57:42;102309.25;;;-2.69;81.78
75923;BME280;64602;47.542;19.090;2022-12-18T08:02:56;102313.28;;;-2.52;80.84
75923;BME280;64602;47.542;19.090;2022-12-18T08:07:58;102304.56;;;-2.32;80.23
75923;BME280;64602;47.542;19.090;2022-12-18T08:13:00;102329.94;;;-1.83;79.24
75923;BME280;64602;47.542;19.090;2022-12-18T08:18:06;102335.47;;;-1.63;77.55
75923;BME280;64602;47.542;19.090;2022-12-18T08:23:14;102345.19;;;-1.30;76.78
75923;BME280;64602;47.542;19.090;2022-12-18T08:28:17;102340.16;;;-1.12;75.06
75923;BME280;64602;47.542;19.090;2022-12-18T08:33:19;102351.69;;;-0.91;74.27
75923;BME280;64602;47.542;19.090;2022-12-18T08:38:21;102355.16;;;-0.79;73.27
75923;BME280;64602;47.542;19.090;2022-12-18T08:43:25;102355.25;;;-0.48;72.68
75923;BME280;64602;47.542;19.090;2022-12-18T08:48:45;102355.59;;;-0.32;71.09
75923;BME280;64602;47.542;19.090;2022-12-18T08:53:48;102350.00;;;0.02;70.68
75923;BME280;64602;47.542;19.090;2022-12-18T08:58:54;102354.72;;;0.19;69.36
75923;BME280;64602;47.542;19.090;2022-12-18T09:03:56;102351.19;;;0.19;68.27
75923;BME280;64602;47.542;19.090;2022-12-18T09:08:58;102369.25;;;0.46;67.32
75923;BME280;64602;47.542;19.090;2022-12-18T09:14:01;102368.81;;;0.41;67.03
75923;BME280;64602;47.542;19.090;2022-12-18T09:19:04;102384.19;;;0.49;67.56
75923;BME280;64602;47.542;19.090;2022-12-18T09:24:12;102375.16;;;0.40;66.93
75923;BME280;64602;47.542;19.090;2022-12-18T09:29:15;102387.69;;;0.49;66.96
75923;BME280;64602;47.542;19.090;2022-12-18T09:34:20;102382.81;;;0.64;66.45
75923;BME280;64602;47.542;19.090;2022-12-18T09:39:23;102388.63;;;0.89;65.47
75923;BME280;64602;47.542;19.090;2022-12-18T09:44:41;102365.56;;;1.07;65.00
75923;BME280;64602;47.542;19.090;2022-12-18T09:49:50;102374.16;;;1.77;63.89
75923;BME280;64602;47.542;19.090;2022-12-18T10:00:17;102379.47;;;4.03;55.62
75923;BME280;64602;47.542;19.090;2022-12-18T10:05:33;102365.94;;;5.95;51.12
75923;BME280;64602;47.542;19.090;2022-12-18T10:10:47;102386.47;;;9.07;42.75
75923;BME280;64602;47.542;19.090;2022-12-18T10:16:08;102390.00;;;9.08;41.42
75923;BME280;64602;47.542;19.090;2022-12-18T10:21:18;102382.66;;;10.90;37.46
75923;BME280;64602;47.542;19.090;2022-12-18T10:26:21;102383.78;;;11.89;36.32
75923;BME280;64602;47.542;19.090;2022-12-18T10:31:24;102391.25;;;13.67;33.31
75923;BME280;64602;47.542;19.090;2022-12-18T10:36:26;102384.53;;;15.76;29.16
75923;BME280;64602;47.542;19.090;2022-12-18T10:41:28;102385.38;;;17.56;26.84
75923;BME280;64602;47.542;19.090;2022-12-18T10:46:32;102390.66;;;20.13;23.33
75923;BME280;64602;47.542;19.090;2022-12-18T10:51:36;102402.63;;;20.34;22.90
75923;BME280;64602;47.542;19.090;2022-12-18T10:56:39;102391.72;;;22.34;20.05
75923;BME280;64602;47.542;19.090;2022-12-18T11:01:56;102395.16;;;24.07;17.90
75923;BME280;64602;47.542;19.090;2022-12-18T11:07:01;102393.28;;;24.27;18.30
75923;BME280;64602;47.542;19.090;2022-12-18T11:12:24;102372.13;;;23.54;17.79
75923;BME280;64602;47.542;19.090;2022-12-18T11:17:35;102384.25;;;24.83;16.80
75923;BME280;64602;47.542;19.090;2022-12-18T11:22:37;102373.63;;;25.56;15.90
75923;BME280;64602;47.542;19.090;2022-12-18T11:27:40;102377.06;;;26.36;15.11
75923;BME280;64602;47.542;19.090;2022-12-18T11:32:45;102376.59;;;26.06;15.16
75923;BME280;64602;47.542;19.090;2022-12-18T11:37:58;102377.91;;;25.34;15.00
75923;BME280;64602;47.542;19.090;2022-12-18T11:43:14;102359.53;;;24.39;15.86
75923;BME280;64602;47.542;19.090;2022-12-18T11:49:07;102350.84;;;23.78;16.08
75923;BME280;64602;47.542;19.090;2022-12-18T11:54:15;102339.19;;;17.69;20.81
75923;BME280;64602;47.542;19.090;2022-12-18T12:10:08;102347.69;;;26.43;14.65
75923;BME280;64602;47.542;19.090;2022-12-18T12:15:32;102337.84;;;25.96;14.52
75923;BME280;64602;47.542;19.090;2022-12-18T12:20:42;102336.13;;;25.67;14.91
75923;BME280;64602;47.542;19.090;2022-12-18T12:41:25;102305.84;;;14.52;25.29
75923;BME280;64602;47.542;19.090;2022-12-18T12:46:49;102296.78;;;11.23;30.76
75923;BME280;64602;47.542;19.090;2022-12-18T12:52:00;102315.09;;;10.61;32.48
75923;BME280;64602;47.542;19.090;2022-12-18T12:57:30;102320.72;;;10.11;33.71
75923;BME280;64602;47.542;19.090;2022-12-18T13:07:55;102336.00;;;7.30;38.92
75923;BME280;64602;47.542;19.090;2022-12-18T13:33:47;102344.16;;;4.33;46.75
75923;BME280;64602;47.542;19.090;2022-12-18T13:44:38;102357.66;;;3.80;48.53
75923;BME280;64602;47.542;19.090;2022-12-18T13:49:43;102348.66;;;3.63;49.48
75923;BME280;64602;47.542;19.090;2022-12-18T13:54:54;102351.75;;;3.51;50.00
75923;BME280;64602;47.542;19.090;2022-12-18T13:59:58;102369.16;;;3.47;50.67
75923;BME280;64602;47.542;19.090;2022-12-18T14:05:00;102355.09;;;3.27;51.09
75923;BME280;64602;47.542;19.090;2022-12-18T14:10:02;102367.59;;;3.18;51.99
75923;BME280;64602;47.542;19.090;2022-12-18T14:20:29;102377.66;;;2.80;53.27
75923;BME280;64602;47.542;19.090;2022-12-18T14:25:32;102379.44;;;2.62;54.48
75923;BME280;64602;47.542;19.090;2022-12-18T14:30:38;102368.56;;;2.45;55.67
75923;BME280;64602;47.542;19.090;2022-12-18T14:35:42;102371.88;;;2.29;56.11
75923;BME280;64602;47.542;19.090;2022-12-18T14:40:45;102385.78;;;2.05;56.63
75923;BME280;64602;47.542;19.090;2022-12-18T14:45:47;102395.69;;;1.95;58.34
75923;BME280;64602;47.542;19.090;2022-12-18T14:51:06;102387.88;;;1.64;59.13
75923;BME280;64602;47.542;19.090;2022-12-18T14:56:24;102391.69;;;1.52;59.49
75923;BME280;64602;47.542;19.090;2022-12-18T15:01:34;102417.06;;;1.38;60.66
75923;BME280;64602;47.542;19.090;2022-12-18T15:06:38;102417.06;;;1.28;61.54
75923;BME280;64602;47.542;19.090;2022-12-18T15:16:44;102429.56;;;0.89;63.56
75923;BME280;64602;47.542;19.090;2022-12-18T15:21:47;102430.78;;;0.66;64.56
75923;BME280;64602;47.542;19.090;2022-12-18T15:26:49;102442.12;;;0.58;65.25
75923;BME280;64602;47.542;19.090;2022-12-18T15:31:59;102438.44;;;0.39;65.24
75923;BME280;64602;47.542;19.090;2022-12-18T15:37:01;102438.44;;;0.39;66.30
75923;BME280;64602;47.542;19.090;2022-12-18T15:42:08;102467.75;;;0.30;66.35
75923;BME280;64602;47.542;19.090;2022-12-18T15:47:29;102465.72;;;0.12;67.52
75923;BME280;64602;47.542;19.090;2022-12-18T15:52:39;102485.50;;;0.10;67.03
75923;BME280;64602;47.542;19.090;2022-12-18T15:57:41;102490.38;;;0.05;67.87
75923;BME280;64602;47.542;19.090;2022-12-18T16:02:43;102491.69;;;-0.11;68.37
75923;BME280;64602;47.542;19.090;2022-12-18T16:07:46;102492.53;;;-0.31;69.31
75923;BME280;64602;47.542;19.090;2022-12-18T16:12:48;102509.03;;;-0.37;70.36
75923;BME280;64602;47.542;19.090;2022-12-18T16:17:50;102509.56;;;-0.44;70.52
75923;BME280;64602;47.542;19.090;2022-12-18T16:22:53;102515.38;;;-0.50;71.07
75923;BME280;64602;47.542;19.090;2022-12-18T16:27:56;102524.28;;;-0.60;71.52
75923;BME280;64602;47.542;19.090;2022-12-18T16:32:58;102518.00;;;-0.71;71.51
75923;BME280;64602;47.542;19.090;2022-12-18T16:38:00;102515.03;;;-0.89;71.51
75923;BME280;64602;47.542;19.090;2022-12-18T16:43:02;102513.69;;;-0.94;72.12
75923;BME280;64602;47.542;19.090;2022-12-18T16:48:05;102517.31;;;-0.95;72.52
75923;BME280;64602;47.542;19.090;2022-12-18T16:53:07;102523.28;;;-1.03;72.37
75923;BME280;64602;47.542;19.090;2022-12-18T16:58:09;102535.13;;;-1.07;72.55
75923;BME280;64602;47.542;19.090;2022-12-18T17:03:11;102527.28;;;-1.20;73.75
75923;BME280;64602;47.542;19.090;2022-12-18T17:08:14;102537.59;;;-1.15;74.00
75923;BME280;64602;47.542;19.090;2022-12-18T17:13:16;102532.88;;;-1.23;74.04
75923;BME280;64602;47.542;19.090;2022-12-18T17:18:25;102516.16;;;-1.36;74.78
75923;BME280;64602;47.542;19.090;2022-12-18T17:23:28;102518.81;;;-1.47;74.94
75923;BME280;64602;47.542;19.090;2022-12-18T17:28:30;102532.63;;;-1.42;75.09
75923;BME280;64602;47.542;19.090;2022-12-18T17:33:32;102536.97;;;-1.53;75.28
75923;BME280;64602;47.542;19.090;2022-12-18T17:38:35;102526.91;;;-1.60;75.31
75923;BME280;64602;47.542;19.090;2022-12-18T17:43:37;102543.97;;;-1.63;76.07
75923;BME280;64602;47.542;19.090;2022-12-18T17:48:48;102544.47;;;-1.69;nan
75923;BME280;64602;47.542;19.090;2022-12-18T17:53:50;102555.31;;;-1.83;76.46
75923;BME280;64602;47.542;19.090;2022-12-18T17:58:53;102546.72;;;-1.87;76.95
75923;BME280;64602;47.542;19.090;2022-12-18T18:03:55;102546.62;;;-1.74;77.14
75923;BME280;64602;47.542;19.090;2022-12-18T18:08:57;102520.81;;;-1.96;77.52
75923;BME280;64602;47.542;19.090;2022-12-18T18:14:00;102517.72;;;-2.14;77.81
75923;BME280;64602;47.542;19.090;2022-12-18T18:19:05;102542.16;;;-2.09;77.91
75923;BME280;64602;47.542;19.090;2022-12-18T18:24:08;102542.88;;;-2.18;78.49
75923;BME280;64602;47.542;19.090;2022-12-18T18:29:19;102555.94;;;-2.15;78.47
75923;BME280;64602;47.542;19.090;2022-12-18T18:34:24;102561.16;;;-2.13;78.60
75923;BME280;64602;47.542;19.090;2022-12-18T18:39:27;102561.94;;;-2.24;78.74
75923;BME280;64602;47.542;19.090;2022-12-18T18:44:30;102551.38;;;-2.37;78.75
75923;BME280;64602;47.542;19.090;2022-12-18T18:49:32;102553.53;;;-2.42;79.11
75923;BME280;64602;47.542;19.090;2022-12-18T18:54:35;102580.13;;;-2.42;79.17
75923;BME280;64602;47.542;19.090;2022-12-18T18:59:37;102587.47;;;-2.46;79.68
75923;BME280;64602;47.542;19.090;2022-12-18T19:04:39;102581.41;;;-2.48;80.11
75923;BME280;64602;47.542;19.090;2022-12-18T19:09:47;102599.69;;;-2.43;80.26
75923;BME280;64602;47.542;19.090;2022-12-18T19:14:53;102598.66;;;-2.53;80.75
75923;BME280;64602;47.542;19.090;2022-12-18T19:19:55;102586.16;;;-2.64;81.41
75923;BME280;64602;47.542;19.090;2022-12-18T19:24:57;102599.41;;;-2.51;81.49
75923;BME280;64602;47.542;19.090;2022-12-18T19:29:59;102615.28;;;-2.63;81.91
75923;BME280;64602;47.542;19.090;2022-12-18T19:35:01;102614.34;;;-2.62;81.96
75923;BME280;64602;47.542;19.090;2022-12-18T19:40:05;102613.94;;;-2.81;82.20
75923;BME280;64602;47.542;19.090;2022-12-18T19:45:13;102629.13;;;-2.70;82.61
75923;BME280;64602;47.542;19.090;2022-12-18T19:50:15;102633.37;;;-2.68;82.33
75923;BME280;64602;47.542;19.090;2022-12-18T19:55:18;102620.19;;;-2.69;82.22
75923;BME280;64602;47.542;19.090;2022-12-18T20:00:20;102641.84;;;-2.63;81.82
75923;BME280;64602;47.542;19.090;2022-12-18T20:05:22;102641.00;;;-2.63;81.86
75923;BME280;64602;47.542;19.090;2022-12-18T20:10:26;102644.09;;;-2.56;82.04
75923;BME280;64602;47.542;19.090;2022-12-18T20:15:28;102647.09;;;-2.74;82.00
75923;BME280;64602;47.542;19.090;2022-12-18T20:20:30;102669.81;;;-2.70;81.97
75923;BME280;64602;47.542;19.090;2022-12-18T20:25:32;102661.78;;;-2.81;82.05
75923;BME280;64602;47.542;19.090;2022-12-18T20:30:34;102666.16;;;-2.93;82.07
75923;BME280;64602;47.542;19.090;2022-12-18T20:35:36;102672.00;;;-3.01;82.40
75923;BME280;64602;47.542;19.090;2022-12-18T20:40:42;102665.81;;;-3.01;82.16
75923;BME280;64602;47.542;19.090;2022-12-18T20:45:44;102663.06;;;-3.12;82.39
75923;BME280;64602;47.542;19.090;2022-12-18T20:51:03;102678.69;;;-3.08;82.89
75923;BME280;64602;47.542;19.090;2022-12-18T20:56:18;102682.28;;;-3.09;83.07
75923;BME280;64602;47.542;19.090;2022-12-18T21:01:23;102687.81;;;-3.12;83.11
75923;BME280;64602;47.542;19.090;2022-12-18T21:06:26;102686.22;;;-3.14;83.15
75923;BME280;64602;47.542;19.090;2022-12-18T21:11:30;102701.09;;;-3.12;83.13
75923;BME280;64602;47.542;19.090;2022-12-18T21:16:51;102687.37;;;-3.18;83.26
75923;BME280;64602;47.542;19.090;2022-12-18T21:21:54;102706.31;;;-3.10;83.58
75923;BME280;64602;47.542;19.090;2022-12-18T21:26:57;102701.31;;;-3.15;83.98
75923;BME280;64602;47.542;19.090;2022-12-18T21:31:59;102716.94;;;-3.10;84.14
75923;BME280;64602;47.542;19.090;2022-12-18T21:37:03;102698.75;;;-3.04;83.83
75923;BME280;64602;47.542;19.090;2022-12-18T21:42:05;102691.22;;;-2.97;83.38
75923;BME280;64602;47.542;19.090;2022-12-18T21:47:26;102700.69;;;-2.93;83.16
75923;BME280;64602;47.542;19.090;2022-12-18T21:52:28;102670.50;;;-3.05;83.11
75923;BME280;64602;47.542;19.090;2022-12-18T21:57:33;102692.50;;;-3.03;83.10
75923;BME280;64602;47.542;19.090;2022-12-18T22:02:35;102694.63;;;-3.08;83.08
75923;BME280;64602;47.542;19.090;2022-12-18T22:07:37;102669.12;;;-3.10;83.04
75923;BME280;64602;47.542;19.090;2022-12-18T22:12:39;102682.94;;;-3.05;82.90
75923;BME280;64602;47.542;19.090;2022-12-18T22:17:46;102679.41;;;-3.31;83.25
75923;BME280;64602;47.542;19.090;2022-12-18T22:22:48;102690.56;;;-3.52;83.88
75923;BME280;64602;47.542;19.090;2022-12-18T22:27:52;102682.16;;;-3.58;84.36
75923;BME280;64602;47.542;19.090;2022-12-18T22:33:13;102682.12;;;-3.71;84.54
75923;BME280;64602;47.542;19.090;2022-12-18T22:38:15;102675.59;;;-3.80;84.78
75923;BME280;64602;47.542;19.090;2022-12-18T22:43:18;102679.94;;;-3.79;84.78
75923;BME280;64602;47.542;19.090;2022-12-18T22:48:20;102690.91;;;-3.83;85.10
75923;BME280;64602;47.542;19.090;2022-12-18T22:53:22;102680.59;;;-3.88;85.12
75923;BME280;64602;47.542;19.090;2022-12-18T22:58:25;102682.03;;;-3.97;85.47
75923;BME280;64602;47.542;19.090;2022-12-18T23:03:27;102707.66;;;-3.83;85.30
75923;BME280;64602;47.542;19.090;2022-12-18T23:08:29;102708.25;;;-3.92;85.56
75923;BME280;64602;47.542;19.090;2022-12-18T23:13:32;102698.78;;;-3.96;85.38
75923;BME280;64602;47.542;19.090;2022-12-18T23:18:35;102706.91;;;-3.85;85.41
75923;BME280;64602;47.542;19.090;2022-12-18T23:23:37;102712.25;;;-3.72;85.22
75923;BME280;64602;47.542;19.090;2022-12-18T23:28:40;102719.75;;;-3.52;84.81
75923;BME280;64602;47.542;19.090;2022-12-18T23:33:43;102721.91;;;-3.31;84.29
75923;BME280;64602;47.542;19.090;2022-12-18T23:38:47;102714.37;;;-3.25;83.99
75923;BME280;64602;47.542;19.090;2022-12-18T23:43:51;102711.41;;;-3.20;84.11
75923;BME280;64602;47.542;19.090;2022-12-18T23:48:53;102713.84;;;-3.17;84.42
75923;BME280;64602;47.542;19.090;2022-12-18T23:53:58;102715.22;;;-3.11;84.61
75923;BME280;64602;47.542;19.090;2022-12-18T23:59:01;102719.91;;;-3.02;84.93
